createdAt,value
2018-02-10T00:00:39.587Z,39.10
2018-02-10T00:03:07.090Z,37.93
2018-02-10T00:05:35.375Z,40.87
2018-02-10T00:08:03.627Z,35.80
2018-02-10T00:10:31.117Z,37.97
2018-02-10T00:12:58.619Z,40.40
2018-02-10T00:15:26.126Z,45.37
2018-02-10T00:17:54.399Z,40.10
2018-02-10T00:20:22.696Z,40.73
2018-02-10T00:22:50.190Z,36.13
2018-02-10T00:25:17.739Z,37.53
2018-02-10T00:27:45.382Z,36.40
2018-02-10T00:30:12.902Z,39.00
2018-02-10T00:32:41.165Z,42.07
2018-02-10T00:35:08.786Z,41.63
2018-02-10T00:37:36.279Z,40.33
2018-02-10T00:40:03.791Z,51.23
2018-02-10T00:42:31.434Z,56.17
2018-02-10T00:44:58.973Z,45.00
2018-02-10T00:47:27.256Z,40.77
2018-02-10T00:49:54.918Z,43.33
2018-02-10T00:52:22.429Z,36.80
2018-02-10T00:54:49.997Z,41.80
2018-02-10T00:57:18.351Z,40.07
2018-02-10T00:59:45.846Z,41.20
2018-02-10T01:02:13.666Z,37.60
2018-02-10T01:04:41.154Z,33.17
2018-02-10T01:07:08.722Z,41.63
2018-02-10T01:09:36.491Z,40.77
2018-02-10T01:12:03.999Z,41.40
2018-02-10T01:14:32.300Z,35.47
2018-02-10T01:17:00.061Z,34.37
2018-02-10T01:19:28.336Z,40.10
2018-02-10T01:21:56.623Z,39.17
2018-02-10T01:24:25.053Z,32.97
2018-02-10T01:26:52.562Z,44.40
2018-02-10T01:29:20.070Z,39.23
2018-02-10T01:31:47.570Z,35.93
2018-02-10T01:34:15.096Z,35.40
2018-02-10T01:36:42.582Z,36.03
2018-02-10T01:39:10.107Z,38.13
2018-02-10T01:41:37.602Z,35.03
2018-02-10T01:44:05.107Z,34.37
2018-02-10T01:46:33.387Z,33.43
2018-02-10T01:49:01.651Z,71.80
2018-02-10T01:51:29.931Z,42.13
2018-02-10T01:53:57.508Z,33.03
2018-02-10T01:56:25.011Z,57.37
2018-02-10T01:58:52.632Z,40.30
2018-02-10T02:01:20.133Z,38.87
2018-02-10T02:03:47.630Z,38.40
2018-02-10T02:06:15.895Z,39.87
2018-02-10T02:08:44.163Z,41.87
2018-02-10T02:11:12.448Z,34.73
2018-02-10T02:13:40.734Z,37.47
2018-02-10T02:16:08.242Z,34.13
2018-02-10T02:18:35.755Z,34.63
2018-02-10T02:21:03.274Z,35.67
2018-02-10T02:23:30.779Z,34.33
2018-02-10T02:25:58.416Z,39.03
2018-02-10T02:28:26.683Z,41.33
2018-02-10T02:30:54.953Z,36.77
2018-02-10T02:33:22.508Z,35.03
2018-02-10T02:35:50.031Z,37.13
2018-02-10T02:38:17.654Z,34.90
2018-02-10T02:40:45.147Z,34.80
2018-02-10T02:43:12.673Z,36.27
2018-02-10T02:45:40.179Z,42.20
2018-02-10T02:48:07.679Z,39.87
2018-02-10T02:50:35.202Z,40.57
2018-02-10T02:53:02.716Z,37.83
2018-02-10T02:55:30.236Z,40.97
2018-02-10T02:57:57.771Z,35.50
2018-02-10T03:00:25.298Z,37.87
2018-02-10T03:02:52.807Z,39.77
2018-02-10T03:05:20.409Z,38.30
2018-02-10T03:07:47.935Z,42.70
2018-02-10T03:10:15.455Z,33.40
2018-02-10T03:12:42.998Z,39.90
2018-02-10T03:15:10.537Z,39.27
2018-02-10T03:17:38.047Z,34.00
2018-02-10T03:20:05.581Z,35.83
2018-02-10T03:22:33.079Z,37.17
2018-02-10T03:25:00.604Z,35.23
2018-02-10T03:27:28.131Z,33.43
2018-02-10T03:29:55.672Z,36.70
2018-02-10T03:32:24.089Z,36.47
2018-02-10T03:34:51.614Z,37.67
2018-02-10T03:37:19.139Z,35.63
2018-02-10T03:39:47.437Z,39.40
2018-02-10T03:42:15.727Z,39.27
2018-02-10T03:44:43.987Z,36.50
2018-02-10T03:47:12.268Z,35.83
2018-02-10T03:49:40.575Z,39.33
2018-02-10T03:52:08.089Z,36.47
2018-02-10T03:54:35.633Z,33.37
2018-02-10T03:57:03.147Z,30.70
2018-02-10T03:59:30.676Z,36.87
2018-02-10T04:01:58.975Z,39.90
2018-02-10T04:04:26.483Z,37.73
2018-02-10T04:06:53.998Z,36.30
2018-02-10T04:09:21.530Z,37.53
2018-02-10T04:11:49.798Z,36.27
2018-02-10T04:14:18.089Z,33.87
2018-02-10T04:16:46.521Z,38.37
2018-02-10T04:19:14.018Z,36.30
2018-02-10T04:21:42.297Z,38.43
2018-02-10T04:24:10.583Z,44.13
2018-02-10T04:26:38.083Z,41.00
2018-02-10T04:29:05.708Z,36.43
2018-02-10T04:31:33.227Z,37.80
2018-02-10T04:34:00.731Z,42.93
2018-02-10T04:36:28.251Z,36.87
2018-02-10T04:38:56.533Z,38.07
2018-02-10T04:41:24.813Z,38.77
2018-02-10T04:43:52.315Z,39.73
2018-02-10T04:46:19.842Z,38.73
2018-02-10T04:48:47.348Z,38.20
2018-02-10T04:51:14.891Z,36.37
2018-02-10T04:53:42.414Z,35.63
2018-02-10T04:56:10.059Z,38.40
2018-02-10T04:58:38.327Z,36.03
2018-02-10T05:01:05.838Z,35.17
2018-02-10T05:03:33.380Z,39.77
2018-02-10T05:06:00.921Z,37.23
2018-02-10T05:08:29.199Z,34.53
2018-02-10T05:10:56.709Z,43.03
2018-02-10T05:13:24.268Z,39.57
2018-02-10T05:15:51.794Z,43.93
2018-02-10T05:18:19.294Z,37.03
2018-02-10T05:20:46.976Z,41.27
2018-02-10T05:23:15.233Z,37.73
2018-02-10T05:25:42.742Z,40.80
2018-02-10T05:28:10.267Z,43.93
2018-02-10T05:30:38.550Z,58.07
2018-02-10T05:33:06.817Z,41.97
2018-02-10T05:35:35.252Z,42.67
2018-02-10T05:38:03.519Z,42.20
2018-02-10T05:40:31.029Z,39.43
2018-02-10T05:42:59.327Z,40.80
2018-02-10T05:45:26.846Z,42.77
2018-02-10T05:47:54.391Z,43.07
2018-02-10T05:50:21.906Z,44.27
2018-02-10T05:52:49.448Z,49.03
2018-02-10T05:55:17.731Z,43.97
2018-02-10T05:57:46.013Z,49.07
2018-02-10T06:00:13.523Z,46.53
2018-02-10T06:02:41.032Z,47.63
2018-02-10T06:05:08.559Z,47.87
2018-02-10T06:07:36.070Z,45.80
2018-02-10T06:10:03.567Z,56.30
2018-02-10T06:12:31.116Z,44.17
2018-02-10T06:14:58.610Z,67.10
2018-02-10T06:17:26.877Z,51.83
2018-02-10T06:19:55.275Z,57.47
2018-02-10T06:22:22.777Z,47.10
2018-02-10T06:24:50.291Z,48.13
2018-02-10T06:27:17.837Z,47.17
2018-02-10T06:29:46.114Z,48.63
2018-02-10T06:32:14.375Z,45.73
2018-02-10T06:34:42.671Z,47.63
2018-02-10T06:37:10.934Z,50.33
2018-02-10T06:39:39.227Z,56.47
2018-02-10T06:42:06.738Z,44.17
2018-02-10T06:44:34.254Z,44.37
2018-02-10T06:47:01.758Z,46.83
2018-02-10T06:49:29.281Z,49.20
2018-02-10T06:51:56.783Z,45.57
2018-02-10T06:54:24.473Z,54.93
2018-02-10T06:56:52.789Z,51.77
2018-02-10T06:59:20.281Z,48.20
2018-02-10T07:01:47.826Z,48.37
2018-02-10T07:04:15.334Z,45.83
2018-02-10T07:06:42.896Z,61.33
2018-02-10T07:09:11.163Z,48.07
2018-02-10T07:11:38.673Z,44.13
2018-02-10T07:14:06.213Z,48.17
2018-02-10T07:16:33.726Z,44.93
2018-02-10T07:19:01.241Z,46.63
2018-02-10T07:21:28.903Z,41.43
2018-02-10T07:23:56.402Z,39.73
2018-02-10T07:26:24.702Z,40.93
2018-02-10T07:28:52.402Z,44.37
2018-02-10T07:31:19.903Z,45.10
2018-02-10T07:33:48.171Z,45.53
2018-02-10T07:36:15.682Z,43.73
2018-02-10T07:38:43.184Z,45.03
2018-02-10T07:41:11.548Z,44.50
2018-02-10T07:43:39.087Z,46.20
2018-02-10T07:46:06.611Z,60.17
2018-02-10T07:48:34.122Z,46.73
2018-02-10T07:51:01.630Z,47.73
2018-02-10T07:53:29.139Z,44.53
2018-02-10T07:55:57.430Z,43.43
2018-02-10T07:58:25.722Z,48.00
2018-02-10T08:00:53.223Z,47.30
2018-02-10T08:03:20.763Z,47.27
2018-02-10T08:05:48.267Z,44.27
2018-02-10T08:08:15.778Z,46.13
2018-02-10T08:10:43.291Z,48.57
2018-02-10T08:13:11.666Z,53.37
2018-02-10T08:22:49.640Z,50.83
2018-02-10T08:25:17.136Z,50.20
2018-02-10T08:27:44.919Z,44.07
2018-02-10T08:30:12.431Z,46.93
2018-02-10T08:32:39.940Z,53.53
2018-02-10T08:35:07.446Z,54.50
2018-02-10T08:37:34.957Z,51.70
2018-02-10T08:40:02.472Z,49.00
2018-02-10T08:42:30.001Z,51.73
2018-02-10T08:44:57.523Z,51.13
2018-02-10T08:47:25.032Z,48.00
2018-02-10T08:49:52.683Z,49.10
2018-02-10T08:52:20.191Z,45.90
2018-02-10T08:54:48.464Z,52.00
2018-02-10T08:57:15.961Z,47.47
2018-02-10T08:59:44.223Z,53.27
2018-02-10T09:02:11.737Z,54.53
2018-02-10T09:04:39.251Z,52.13
2018-02-10T09:07:07.510Z,50.50
2018-02-10T09:09:35.018Z,51.73
2018-02-10T09:12:02.527Z,54.97
2018-02-10T09:14:30.020Z,68.90
2018-02-10T09:16:57.682Z,71.73
2018-02-10T09:19:25.233Z,56.10
2018-02-10T09:21:53.503Z,58.47
2018-02-10T09:24:21.794Z,57.63
2018-02-10T09:26:50.054Z,54.33
2018-02-10T09:29:18.331Z,58.73
2018-02-10T09:31:46.773Z,58.40
2018-02-10T09:34:14.268Z,55.33
2018-02-10T09:36:42.542Z,60.67
2018-02-10T09:39:10.828Z,59.40
2018-02-10T09:41:39.073Z,59.50
2018-02-10T09:44:06.567Z,59.07
2018-02-10T09:46:34.950Z,62.93
2018-02-10T09:49:03.212Z,61.83
2018-02-10T09:51:30.698Z,66.43
2018-02-10T09:53:58.203Z,63.43
2018-02-10T09:56:25.698Z,61.60
2018-02-10T09:58:53.966Z,59.03
2018-02-10T10:01:22.241Z,68.20
2018-02-10T10:03:50.507Z,59.80
2018-02-10T10:06:18.008Z,61.27
2018-02-10T10:08:45.509Z,58.80
2018-02-10T10:11:13.814Z,54.07
2018-02-10T10:13:42.070Z,67.57
2018-02-10T10:16:09.562Z,54.47
2018-02-10T10:18:37.063Z,63.30
2018-02-10T10:21:04.551Z,80.20
2018-02-10T10:23:32.066Z,79.87
2018-02-10T10:25:59.623Z,69.10
2018-02-10T10:28:27.117Z,76.67
2018-02-10T10:30:54.631Z,72.13
2018-02-10T10:33:22.113Z,67.53
2018-02-10T10:35:49.615Z,87.83
2018-02-10T10:38:17.864Z,70.43
2018-02-10T10:40:45.372Z,95.30
2018-02-10T10:43:12.936Z,65.53
2018-02-10T10:45:40.427Z,70.07
2018-02-10T10:48:07.926Z,67.67
2018-02-10T10:50:35.582Z,69.93
2018-02-10T10:53:03.834Z,89.17
2018-02-10T10:55:31.322Z,65.17
2018-02-10T10:57:58.962Z,69.50
2018-02-10T11:00:27.231Z,73.83
2018-02-10T11:02:55.173Z,60.57
2018-02-10T11:05:22.674Z,60.47
2018-02-10T11:07:50.955Z,68.83
2018-02-10T11:10:19.222Z,78.20
2018-02-10T11:12:47.584Z,65.00
2018-02-10T11:15:15.143Z,63.30
2018-02-10T11:17:42.632Z,96.13
2018-02-10T11:20:10.135Z,72.60
2018-02-10T11:22:37.626Z,68.30
2018-02-10T11:25:05.903Z,131.97
2018-02-10T11:27:34.167Z,66.47
2018-02-10T11:30:01.667Z,65.50
2018-02-10T11:32:29.156Z,77.47
2018-02-10T11:34:56.668Z,63.10
2018-02-10T11:37:24.158Z,65.63
2018-02-10T11:39:51.682Z,69.03
2018-02-10T11:42:19.198Z,61.60
2018-02-10T11:44:46.720Z,84.70
2018-02-10T11:47:14.273Z,98.10
2018-02-10T11:49:44.980Z,59.93
2018-02-10T11:52:13.292Z,62.67
2018-02-10T11:54:41.522Z,52.70
2018-02-10T11:57:09.781Z,58.27
2018-02-10T11:59:37.295Z,57.77
2018-02-10T12:02:04.783Z,78.47
2018-02-10T12:04:32.295Z,69.23
2018-02-10T12:06:59.804Z,60.70
2018-02-10T12:09:27.295Z,49.83
2018-02-10T12:11:55.554Z,51.83
2018-02-10T12:14:23.056Z,64.80
2018-02-10T12:16:50.548Z,50.70
2018-02-10T12:19:18.035Z,52.23
2018-02-10T12:21:46.298Z,46.23
2018-02-10T12:24:13.794Z,54.00
2018-02-10T12:26:41.285Z,50.00
2018-02-10T12:29:08.781Z,49.93
2018-02-10T12:31:36.291Z,97.33
2018-02-10T12:34:03.782Z,50.87
2018-02-10T12:36:31.282Z,46.67
2018-02-10T12:38:58.782Z,44.63
2018-02-10T12:41:26.270Z,53.77
2018-02-10T12:43:54.542Z,46.00
2018-02-10T12:46:22.808Z,64.70
2018-02-10T12:48:55.991Z,62.83
2018-02-10T12:51:23.496Z,62.03
2018-02-10T12:53:50.980Z,64.80
2018-02-10T12:56:18.486Z,53.57
2018-02-10T12:58:46.746Z,45.47
2018-02-10T13:01:14.248Z,50.73
2018-02-10T13:03:41.775Z,72.63
2018-02-10T13:06:09.275Z,63.40
2018-02-10T13:08:36.770Z,49.87
2018-02-10T13:11:04.258Z,60.33
2018-02-10T13:13:32.528Z,46.30
2018-02-10T13:16:00.791Z,47.67
2018-02-10T13:18:28.286Z,41.73
2018-02-10T13:20:55.795Z,42.17
2018-02-10T13:23:23.308Z,45.13
2018-02-10T13:25:50.804Z,58.57
2018-02-10T13:28:18.353Z,43.17
2018-02-10T13:30:45.847Z,46.40
2018-02-10T13:33:14.108Z,41.50
2018-02-10T13:35:41.590Z,76.10
2018-02-10T13:38:09.867Z,47.77
2018-02-10T13:40:38.129Z,39.23
2018-02-10T13:43:06.417Z,39.77
2018-02-10T13:45:34.666Z,47.83
2018-02-10T13:48:02.167Z,41.30
2018-02-10T13:50:29.667Z,38.10
2018-02-10T13:52:57.172Z,35.63
2018-02-10T13:55:25.428Z,37.77
2018-02-10T13:57:52.933Z,36.60
2018-02-10T14:00:20.435Z,47.73
2018-02-10T14:02:47.956Z,81.77
2018-02-10T14:05:15.455Z,47.30
2018-02-10T14:07:42.947Z,44.73
2018-02-10T14:10:10.457Z,44.97
2018-02-10T14:12:37.942Z,38.17
2018-02-10T14:15:06.208Z,40.97
2018-02-10T14:17:34.484Z,43.67
2018-02-10T14:20:02.743Z,39.13
2018-02-10T14:22:30.263Z,48.33
2018-02-10T14:24:57.758Z,40.63
2018-02-10T14:27:25.255Z,43.20
2018-02-10T14:29:52.768Z,37.40
2018-02-10T14:32:20.275Z,38.07
2018-02-10T14:34:47.760Z,35.27
2018-02-10T14:37:15.404Z,41.67
2018-02-10T14:39:42.949Z,40.57
2018-02-10T14:42:11.183Z,39.77
2018-02-10T14:44:38.830Z,37.30
2018-02-10T14:47:06.316Z,43.53
2018-02-10T14:49:33.811Z,41.77
2018-02-10T14:52:01.313Z,41.63
2018-02-10T14:54:28.853Z,44.50
2018-02-10T14:56:56.314Z,45.53
2018-02-10T14:59:23.823Z,44.10
2018-02-10T15:01:52.080Z,55.27
2018-02-10T15:04:20.342Z,48.73
2018-02-10T15:06:47.848Z,47.03
2018-02-10T15:09:15.336Z,51.20
2018-02-10T15:11:42.844Z,56.37
2018-02-10T15:14:11.131Z,50.73
2018-02-10T15:16:38.666Z,51.13
2018-02-10T15:19:06.975Z,74.17
2018-02-10T15:21:34.531Z,69.50
2018-02-10T15:24:02.059Z,72.13
2018-02-10T15:26:30.472Z,61.33
2018-02-10T15:28:57.991Z,60.73
2018-02-10T15:31:26.194Z,80.30
2018-02-10T15:34:05.769Z,66.90
2018-02-10T15:36:33.314Z,66.43
2018-02-10T15:39:00.810Z,59.47
2018-02-10T15:41:28.346Z,73.07
2018-02-10T15:43:55.836Z,69.87
2018-02-10T15:46:23.340Z,59.23
2018-02-10T15:48:50.898Z,68.83
2018-02-10T15:51:19.037Z,62.67
2018-02-10T15:53:46.914Z,79.57
2018-02-10T15:56:15.191Z,96.97
2018-02-10T15:58:42.691Z,65.93
2018-02-10T16:01:10.249Z,68.00
2018-02-10T16:03:37.735Z,66.93
2018-02-10T16:06:05.240Z,73.80
2018-02-10T16:08:32.768Z,66.27
2018-02-10T16:11:00.252Z,70.50
2018-02-10T16:13:27.763Z,70.93
2018-02-10T16:15:55.305Z,71.23
2018-02-10T16:18:23.570Z,74.50
2018-02-10T16:20:51.071Z,69.63
2018-02-10T16:23:19.395Z,69.90
2018-02-10T16:25:46.887Z,78.10
2018-02-10T16:28:14.379Z,70.67
2018-02-10T16:30:41.891Z,73.60
2018-02-10T16:33:09.434Z,70.57
2018-02-10T16:35:36.955Z,69.53
2018-02-10T16:38:04.455Z,65.17
2018-02-10T16:40:31.951Z,73.20
2018-02-10T16:43:00.341Z,76.80
2018-02-10T16:45:28.615Z,69.50
2018-02-10T16:47:56.902Z,69.90
2018-02-10T16:50:24.423Z,75.47
2018-02-10T16:52:51.916Z,64.07
2018-02-10T16:55:19.414Z,79.70
2018-02-10T16:57:46.916Z,71.60
2018-02-10T17:00:15.168Z,77.13
2018-02-10T17:02:42.669Z,74.37
2018-02-10T17:05:10.161Z,73.17
2018-02-10T17:07:37.677Z,69.07
2018-02-10T17:10:05.179Z,64.17
2018-02-10T17:12:32.668Z,66.33
2018-02-10T17:15:00.944Z,64.90
2018-02-10T17:17:28.432Z,76.90
2018-02-10T17:26:41.126Z,77.47
2018-02-10T17:29:08.694Z,78.90
2018-02-10T17:31:37.699Z,64.27
2018-02-10T17:34:05.268Z,65.73
2018-02-10T17:36:32.762Z,85.40
2018-02-10T17:39:00.279Z,70.27
2018-02-10T17:41:27.819Z,75.03
2018-02-10T17:43:55.322Z,76.27
2018-02-10T17:46:22.822Z,69.83
2018-02-10T17:48:50.378Z,70.77
2018-02-10T17:51:18.624Z,71.00
2018-02-10T17:53:46.121Z,79.80
2018-02-10T17:56:13.635Z,71.03
2018-02-10T17:58:41.151Z,75.60
2018-02-10T18:01:08.749Z,77.80
2018-02-10T18:03:36.250Z,78.50
2018-02-10T18:06:03.788Z,69.00
2018-02-10T18:08:31.348Z,73.80
2018-02-10T18:10:59.207Z,71.70
2018-02-10T18:13:26.708Z,76.80
2018-02-10T18:15:54.251Z,70.37
2018-02-10T18:18:22.517Z,66.50
2018-02-10T18:20:49.999Z,71.13
2018-02-10T18:23:17.575Z,78.03
2018-02-10T18:25:45.062Z,80.43
2018-02-10T18:28:12.548Z,73.63
2018-02-10T18:30:40.099Z,82.10
2018-02-10T18:33:07.639Z,78.47
2018-02-10T18:35:35.201Z,82.53
2018-02-10T18:38:02.718Z,79.10
2018-02-10T18:40:30.215Z,78.80
2018-02-10T18:42:57.762Z,87.03
2018-02-10T18:45:25.261Z,73.23
2018-02-10T18:47:52.760Z,79.80
2018-02-10T18:50:21.264Z,78.93
2018-02-10T18:52:49.176Z,71.20
2018-02-10T18:55:16.810Z,84.23
2018-02-10T18:57:44.319Z,81.63
2018-02-10T19:00:12.588Z,75.63
2018-02-10T19:02:40.120Z,64.70
2018-02-10T19:05:07.619Z,66.67
2018-02-10T19:07:35.878Z,66.07
2018-02-10T19:10:03.430Z,65.80
2018-02-10T19:12:30.952Z,67.47
2018-02-10T19:14:58.698Z,60.33
2018-02-10T19:17:26.309Z,65.10
2018-02-10T19:19:53.835Z,67.23
2018-02-10T19:22:21.342Z,62.60
2018-02-10T19:24:48.894Z,61.47
2018-02-10T19:27:16.412Z,57.73
2018-02-10T19:29:43.921Z,54.07
2018-02-10T19:32:11.443Z,56.47
2018-02-10T19:34:38.933Z,52.23
2018-02-10T19:37:07.260Z,51.43
2018-02-10T19:39:34.747Z,47.97
2018-02-10T19:42:02.248Z,46.73
2018-02-10T19:44:30.548Z,48.07
2018-02-10T19:46:58.044Z,46.97
2018-02-10T19:49:25.527Z,40.80
2018-02-10T19:51:53.819Z,42.13
2018-02-10T19:54:21.307Z,43.97
2018-02-10T19:56:48.808Z,45.30
2018-02-10T19:59:17.119Z,47.97
2018-02-10T20:01:44.659Z,46.17
2018-02-10T20:04:12.934Z,44.33
2018-02-10T20:06:41.221Z,45.63
2018-02-10T20:09:08.726Z,48.97
2018-02-10T20:11:37.019Z,48.60
2018-02-10T20:14:04.533Z,46.27
2018-02-10T20:16:32.019Z,48.53
2018-02-10T20:18:59.575Z,53.73
2018-02-10T20:21:27.907Z,49.30
2018-02-10T20:23:55.432Z,44.43
2018-02-10T20:26:22.922Z,48.60
2018-02-10T20:28:50.430Z,45.80
2018-02-10T20:31:17.969Z,39.87
2018-02-10T20:33:45.462Z,47.80
2018-02-10T20:36:13.934Z,37.23
2018-02-10T20:38:41.475Z,45.80
2018-02-10T20:41:08.978Z,35.83
2018-02-10T20:43:37.251Z,40.63
2018-02-10T20:46:05.661Z,41.53
2018-02-10T20:48:33.152Z,41.10
2018-02-10T20:51:00.642Z,34.90
2018-02-10T20:53:28.951Z,43.63
2018-02-10T20:55:56.457Z,38.63
2018-02-10T20:58:23.975Z,37.40
2018-02-10T21:00:51.519Z,35.90
2018-02-10T21:03:19.021Z,42.53
2018-02-10T21:05:46.518Z,39.00
2018-02-10T21:08:14.842Z,42.40
2018-02-10T21:10:42.359Z,38.97
2018-02-10T21:13:10.666Z,35.00
2018-02-10T21:15:39.255Z,30.07
2018-02-10T21:18:06.888Z,34.33
2018-02-10T21:20:35.173Z,30.53
2018-02-10T21:23:02.700Z,30.17
2018-02-10T21:25:30.191Z,27.23
2018-02-10T21:27:58.478Z,28.17
2018-02-10T21:30:26.037Z,28.43
2018-02-10T21:32:53.544Z,30.03
2018-02-10T21:35:21.082Z,28.07
2018-02-10T21:37:48.591Z,23.63
2018-02-10T21:40:16.103Z,27.37
2018-02-10T21:42:43.685Z,25.30
2018-02-10T21:45:11.187Z,24.97
2018-02-10T21:47:38.795Z,21.23
2018-02-10T21:50:06.294Z,31.07
2018-02-10T21:52:34.579Z,27.30
2018-02-10T21:55:02.848Z,23.53
2018-02-10T21:57:30.373Z,24.23
2018-02-10T21:59:57.872Z,24.00
2018-02-10T22:02:25.392Z,25.73
2018-02-10T22:04:52.959Z,21.20
2018-02-10T22:07:20.440Z,23.60
2018-02-10T22:09:49.743Z,34.67
2018-02-10T22:12:17.999Z,22.73
2018-02-10T22:14:45.507Z,23.93
2018-02-10T22:17:13.048Z,26.63
2018-02-10T22:19:40.578Z,23.47
2018-02-10T22:22:08.108Z,38.20
2018-02-10T22:24:35.771Z,20.97
2018-02-10T22:27:03.274Z,22.37
2018-02-10T22:29:31.530Z,20.40
2018-02-10T22:31:59.051Z,22.00
2018-02-10T22:34:26.583Z,23.37
2018-02-10T22:36:54.111Z,21.70
2018-02-10T22:39:21.646Z,26.27
2018-02-10T22:41:49.218Z,22.00
2018-02-10T22:44:16.797Z,23.17
2018-02-10T22:46:44.293Z,24.93
2018-02-10T22:49:11.783Z,19.37
2018-02-10T22:51:39.310Z,19.13
2018-02-10T22:54:06.819Z,30.50
2018-02-10T22:56:34.360Z,19.90
2018-02-10T22:59:01.888Z,19.90
2018-02-10T23:01:29.399Z,21.17
2018-02-10T23:03:57.902Z,19.43
2018-02-10T23:06:25.468Z,22.60
2018-02-10T23:08:52.987Z,20.47
2018-02-10T23:11:20.555Z,36.67
2018-02-10T23:13:48.826Z,22.47
2018-02-10T23:16:16.319Z,28.20
2018-02-10T23:18:43.834Z,29.63
2018-02-10T23:21:11.479Z,19.27
2018-02-10T23:23:38.987Z,20.63
2018-02-10T23:26:06.499Z,22.53
2018-02-10T23:28:34.178Z,26.90
2018-02-10T23:31:02.481Z,41.70
2018-02-10T23:33:30.736Z,24.50
2018-02-10T23:35:58.342Z,30.20
2018-02-10T23:38:25.842Z,24.07
2018-02-10T23:40:54.282Z,20.60
2018-02-10T23:43:21.824Z,27.83
2018-02-10T23:45:49.306Z,29.40
2018-02-10T23:48:16.798Z,22.33
2018-02-10T23:50:44.351Z,28.33
2018-02-10T23:53:11.903Z,41.57
2018-02-10T23:55:39.476Z,40.67
2018-02-10T23:58:07.091Z,29.83
